Flight Track Log - Related Links

Times and Time Zones

All times are in EDT time to prevent confusion due to time zone crossing. See the N386JC flight status page for this flight to view local times or setup timezone preferences in your user account.

Time Position Orientation Groundspeed Altitude Reporting Facility
EDT Latitude Longitude Course Direction KTS MPH feet Rate Location/Type
Thu 01:27:53 PM 40.9456 -81.4311 180° South 181 208 3,100  Level Indianapolis Center
Thu 01:28:53 PM 40.9303 -81.3572 105° East 242 278 5,800 2,274 Climbing Indianapolis Center
Thu 01:29:57 PM 40.8578 -81.3183 158° South 279 321 7,800 2,806 Climbing Indianapolis Center
Thu 01:30:57 PM 40.7878 -81.3769 212° Southwest 293 337 11,600 3,774 Climbing Indianapolis Center
Thu 01:32:01 PM 40.7108 -81.4453 214° Southwest 333 383 15,600 3,319 Climbing Indianapolis Center
Thu 01:33:00 PM 40.3715 -81.5833 180° South  Level FlightAware Approximate
Thu 01:36:17 PM 40.3204 -81.6272 200° South 439 505 29,300  Level FlightAware ADS-B
Thu 01:38:20 PM 39.9949 -81.7635 192° South 497 572 35,300 1,479 Climbing FlightAware ADS-B
Thu 01:40:57 PM 39.6497 -81.8622 194° South 480 552 36,200 627 Climbing FlightAware ADS-B
Thu 01:43:07 PM 39.3669 -81.9554 195° South 479 551 38,300 1,141 Climbing FlightAware ADS-B
Thu 01:43:40 PM 39.2948 -81.9793 194° South 472 543 39,300 1,859 Climbing FlightAware ADS-B
Thu 01:44:18 PM 39.2253 -82.0024 194° South 465 535 40,500 1,714 Climbing FlightAware ADS-B
Thu 01:45:11 PM 39.1081 -82.0529 200° South 450 518 41,900 1,230 Climbing FlightAware ADS-B
Thu 01:46:20 PM 38.9756 -82.1147 200° South 446 513 43,000 653 Climbing FlightAware ADS-B
Thu 01:46:52 PM 38.9125 -82.1441 200° South 458 527 43,000  Level FlightAware ADS-B
Thu 01:47:36 PM 38.8247 -82.1849 200° South 459 528 43,000  Level FlightAware ADS-B
Thu 01:48:39 PM 38.7269 -82.2294 200° South 458 527 43,000  Level Cleveland Center
Thu 01:49:35 PM 38.5969 -82.2917 201° Southwest 456 525 43,000  Level Indianapolis Center
Thu 01:50:39 PM 38.4778 -82.3456 199° South 456 525 43,000  Level Indianapolis Center
Thu 01:51:40 PM 38.3581 -82.4006 200° South 456 525 43,000  Level Indianapolis Center
Thu 01:52:40 PM 38.2378 -82.4567 200° South 457 526 43,000  Level Indianapolis Center
Thu 01:53:44 PM 38.0967 -82.5194 199° South 458 527 43,000  Level Indianapolis Center
Thu 01:54:45 PM 37.9739 -82.5761 200° South 462 532 43,000  Level Indianapolis Center
Thu 01:55:46 PM 37.8514 -82.6325 200° South 464 534 43,000  Level Indianapolis Center
Thu 01:56:49 PM 37.7283 -82.6872 199° South 465 535 43,000  Level Indianapolis Center
Thu 01:57:50 PM 37.6050 -82.7433 200° South 466 536 43,000  Level Indianapolis Center
Thu 01:58:52 PM 37.4806 -82.7989 200° South 470 541 43,000  Level Indianapolis Center
Thu 01:59:55 PM 37.3547 -82.8933 211° Southwest 455 524 43,000  Level Indianapolis Center
Thu 02:00:56 PM 37.2592 -82.9889 219° Southwest 446 513 43,000  Level Indianapolis Center
Thu 02:01:59 PM 37.1614 -83.0842 218° Southwest 445 512 43,000  Level Indianapolis Center
Thu 02:03:00 PM 37.0647 -83.1783 218° Southwest 445 512 43,000  Level Indianapolis Center
Thu 02:04:01 PM 36.9672 -83.2725 218° Southwest 445 512 43,000  Level Indianapolis Center
Thu 02:05:04 PM 36.8528 -83.3819 217° Southwest 445 512 43,000  Level Indianapolis Center
Thu 02:06:05 PM 36.7542 -83.4767 218° Southwest 446 513 43,000  Level Indianapolis Center
Thu 02:07:08 PM 36.6556 -83.5711 218° Southwest 446 513 43,000  Level Indianapolis Center
Thu 02:08:10 PM 36.5561 -83.6664 218° Southwest 448 516 43,000  Level Indianapolis Center
Thu 02:09:13 PM 36.4406 -83.7764 217° Southwest 452 520 43,000  Level Indianapolis Center
Thu 02:10:14 PM 36.3386 -83.8731 217° Southwest 455 524 43,000  Level Indianapolis Center
Thu 02:11:15 PM 36.2353 -83.9714 218° Southwest 461 531 43,000  Level Indianapolis Center
Thu 02:12:18 PM 36.1317 -84.0681 217° Southwest 462 532 43,000  Level Indianapolis Center
Thu 02:13:11 PM 36.0289 -84.1644 217° Southwest 464 534 43,000  Level Atlanta Center
Thu 02:14:11 PM 35.9267 -84.2619 218° Southwest 464 534 43,000  Level Atlanta Center
Thu 02:19:41 PM 35.3134 -84.8312 217° Southwest 468 539 43,000  Level FlightAware ADS-B (KDZJ)
Thu 02:20:23 PM 35.2397 -84.8986 217° Southwest 467 537 43,000  Level FlightAware ADS-B (KDZJ)
Thu 02:21:04 PM 35.1709 -84.9616 217° Southwest 463 533 43,000  Level FlightAware ADS-B (KDZJ)
Thu 02:21:44 PM 35.1016 -85.0250 217° Southwest 461 531 43,000  Level FlightAware ADS-B (KDZJ)
Thu 02:22:25 PM 35.0330 -85.0876 218° Southwest 450 518 43,000  Level FlightAware ADS-B (KDZJ)
Thu 02:23:04 PM 34.9675 -85.1503 224° Southwest 442 509 43,000  Level FlightAware ADS-B (KDZJ)
Thu 02:23:43 PM 34.9158 -85.2215 231° Southwest 434 499 43,000  Level FlightAware ADS-B (KDZJ)
Thu 02:24:16 PM 34.8722 -85.2857 231° Southwest 438 504 43,000  Level FlightAware ADS-B (KDZJ)
Thu 02:29:26 PM 35.1155 -85.0123 230° Southwest 443 510 43,000  Level FlightAware ADS-B (KMDQ)
Thu 02:30:11 PM 34.4522 -85.9003 230° Southwest 440 506 43,000 -30 Level Atlanta Center
Thu 02:36:00 PM 33.9976 -86.5586 230° Southwest 444 511 42,800 -153 Descending FlightAware ADS-B (KMDQ)
Thu 02:36:42 PM 33.9371 -86.6451 230° Southwest 435 501 42,000 -1,462 Descending FlightAware ADS-B (KMDQ)
Thu 02:37:18 PM 33.8806 -86.7260 230° Southwest 424 488 40,900 -1,538 Descending FlightAware ADS-B (KMDQ)
Thu 02:40:01 PM 33.6764 -87.0152 230° Southwest 451 519 36,900 -1,478 Descending FlightAware ADS-B (KMDQ)
Thu 02:40:41 PM 33.6170 -87.0988 230° Southwest 450 518 35,900 -1,481 Descending FlightAware ADS-B (KMDQ)
Thu 02:41:22 PM 33.5615 -87.1771 230° Southwest 456 525 34,900 -1,378 Descending FlightAware ADS-B (KMDQ)
Thu 02:41:55 PM 33.5239 -87.2286 230° Southwest 449 517 34,200 -1,389 Descending Memphis Center
Thu 02:42:57 PM 33.4386 -87.3481 229° Southwest 464 534 32,700 -1,463 Descending Memphis Center
Thu 02:43:58 PM 33.3514 -87.4692 229° Southwest 474 545 31,200 -1,073 Descending Memphis Center
Thu 02:45:00 PM 33.2669 -87.5886 230° Southwest 474 545 30,500 -581 Descending Memphis Center
Thu 02:46:02 PM 33.1819 -87.7056 229° Southwest 470 541 30,000 -242 Descending Memphis Center
Thu 02:47:04 PM 33.0989 -87.8228 230° Southwest 464 534 30,000  Level Memphis Center
Thu 02:48:06 PM 32.9956 -87.9619 229° Southwest 465 535 30,000 -290 Level Memphis Center
Thu 02:49:08 PM 32.9183 -88.0700 230° Southwest 465 535 29,400 -1,161 Descending Memphis Center
Thu 02:50:10 PM 32.8344 -88.1836 229° Southwest 464 534 27,600 -2,032 Descending Memphis Center
Thu 02:51:12 PM 32.7394 -88.3133 229° Southwest 440 506 25,200 -2,098 Descending Memphis Center
Thu 02:52:13 PM 32.6600 -88.4233 229° Southwest 437 503 23,300 -1,951 Descending Memphis Center
Thu 02:53:15 PM 32.5814 -88.5300 229° Southwest 436 502 21,200 -1,935 Descending Memphis Center
Thu 02:54:17 PM 32.5047 -88.6331 229° Southwest 427 491 19,300 -1,935 Descending Memphis Center
Thu 02:55:19 PM 32.4306 -88.7336 229° Southwest 413 475 17,200 -1,984 Descending Memphis Center
Thu 02:56:21 PM 32.3772 -88.8383 239° Southwest 396 456 15,200 -1,790 Descending Memphis Center
Thu 02:57:23 PM 32.3703 -88.9800 267° West 371 427 13,500 -1,073 Descending Memphis Center
Thu 02:58:24 PM 32.3642 -89.0958 266° West 361 415 13,000 -244 Descending Memphis Center
Thu 02:59:26 PM 32.3578 -89.2114 266° West 358 412 13,000 -145 Level Memphis Center
Thu 03:00:28 PM 32.3522 -89.3181 267° West 345 397 12,700 -871 Descending Memphis Center
Thu 03:01:30 PM 32.3472 -89.4208 267° West 329 379 11,200 -823 Descending Memphis Center
Thu 03:02:32 PM 32.3419 -89.5150 266° West 312 359 11,000 -390 Descending Memphis Center
Thu 03:03:33 PM 32.3358 -89.6183 266° West 286 329 10,400 -1,268 Descending Memphis Center
Thu 03:04:35 PM 32.3319 -89.7042 267° West 272 313 8,400 -1,733 Descending Memphis Center
Thu 03:05:03 PM 32.3297 -89.7469 266° West 258 297 7,800 -1,645 Descending Memphis Center
Thu 03:05:37 PM 32.3272 -89.7883 266° West 266 306 6,700 -2,125 Descending Memphis Center
Thu 03:06:39 PM 32.3219 -89.8747 266° West 265 305 4,400 -1,548 Descending Memphis Center
Thu 03:07:41 PM 32.3325 -89.9589 278° West 260 299 3,500 -1,161 Descending Memphis Center
Thu 03:08:43 PM 32.3739 -90.0147 311° West 260 299 2,000 -841 Descending Memphis Center
Thu 03:09:28 PM 32.4144 -90.0422 330° Northwest 190 219 2,000 -98 Level Memphis Center
Thu 03:09:44 PM 32.4103 -90.0567 251° West 201 231 1,900 -385 Descending Memphis Center
Thu 03:10:46 PM 32.3900 -90.0967 239° Southwest 163 188 1,500 -435 Descending Memphis Center
Thu 03:11:48 PM 32.3558 -90.0906 171° South 143 165 1,000 -484 Descending Memphis Center
Thu 03:12:50 PM 32.3186 -90.0733 159° South 136 157 500 -484 Descending Memphis Center

Login

Don't have an account? Register now (free) for customized features, flight alerts, and more!